Time;durP1;ratioP1;P1;durP2;ratioP2;P2;SDS_P1;SDS_P2;PMS_P1;PMS_P2;Temp;Humidity;BMP_temperature;BMP_pressure;BME280_temperature;BME280_humidity;BME280_pressure;Samples;Min_cycle;Max_cycle;Signal;HPM_P1;HPM_P2
2023/08/15 00:02:21;;;;;;;0.20;0.20;;;;;;;18.31;86.84;100150.31;4987264;28;20061;-71
2023/08/15 00:04:47;;;;;;;0.20;0.20;;;;;;;18.27;87.16;100139.06;5004455;28;20057;-72
2023/08/15 00:07:13;;;;;;;0.20;0.20;;;;;;;18.24;87.35;100137.72;4952090;28;20073;-71
2023/08/15 00:09:39;;;;;;;0.20;0.20;;;;;;;18.25;87.45;100146.84;5006073;28;20050;-71
2023/08/15 00:12:06;;;;;;;0.30;0.30;;;;;;;18.22;86.88;100137.22;4986266;28;20068;-71
2023/08/15 00:14:34;;;;;;;0.20;0.20;;;;;;;18.18;87.35;100139.00;4970322;28;20347;-71
2023/08/15 00:17:00;;;;;;;0.20;0.20;;;;;;;18.19;87.67;100143.41;4984788;28;20056;-73
2023/08/15 00:19:26;;;;;;;0.20;0.20;;;;;;;18.20;86.85;100142.28;4989070;28;20081;-72
2023/08/15 00:21:53;;;;;;;0.20;0.20;;;;;;;18.17;87.26;100136.56;4969935;28;20053;-73
2023/08/15 00:24:19;;;;;;;0.20;0.20;;;;;;;18.12;87.21;100141.09;4998132;28;20046;-71
2023/08/15 00:26:45;;;;;;;0.30;0.30;;;;;;;18.08;87.03;100145.63;5005227;28;20085;-72
2023/08/15 00:29:11;;;;;;;0.20;0.20;;;;;;;18.09;86.86;100138.13;4986748;28;20088;-72
2023/08/15 00:31:38;;;;;;;0.20;0.20;;;;;;;18.11;86.58;100142.22;5013775;28;20045;-71
2023/08/15 00:34:05;;;;;;;0.20;0.20;;;;;;;18.08;85.28;100136.50;4985978;28;20052;-71
2023/08/15 00:36:31;;;;;;;0.20;0.20;;;;;;;18.07;85.92;100135.72;5004231;28;20049;-70
2023/08/15 00:39:02;;;;;;;0.20;0.20;;;;;;;18.08;86.36;100140.09;4986454;28;20046;-70
2023/08/15 00:41:29;;;;;;;0.20;0.20;;;;;;;18.11;86.61;100136.69;5006511;28;20073;-72
2023/08/15 00:43:55;;;;;;;0.20;0.20;;;;;;;18.10;87.54;100140.59;4981770;28;20069;-71
2023/08/15 00:46:22;;;;;;;0.20;0.20;;;;;;;18.08;87.84;100144.81;4997859;28;20050;-71
2023/08/15 00:48:49;;;;;;;;;;;;;;;18.08;87.56;100139.28;4985701;28;20073;-72
2023/08/15 00:51:16;;;;;;;0.28;0.28;;;;;;;18.05;87.33;100137.16;4970785;28;19929;-71
2023/08/15 00:53:44;;;;;;;0.20;0.20;;;;;;;18.03;86.87;100139.41;5002106;28;20053;-71
2023/08/15 00:56:10;;;;;;;0.20;0.20;;;;;;;17.98;86.05;100141.16;5003692;28;20046;-71
2023/08/15 00:58:37;;;;;;;0.20;0.20;;;;;;;17.94;86.64;100139.34;5006401;28;20057;-71
2023/08/15 01:01:03;;;;;;;0.20;0.20;;;;;;;17.92;86.92;100136.88;4989772;28;20152;-72
2023/08/15 01:03:30;;;;;;;0.20;0.20;;;;;;;17.84;86.23;100135.69;4990484;28;20152;-73
2023/08/15 01:05:58;;;;;;;0.30;0.30;;;;;;;17.82;86.85;100137.16;5003759;28;20133;-72
2023/08/15 01:08:24;;;;;;;0.20;0.20;;;;;;;17.82;86.77;100142.69;4985869;28;20042;-73
2023/08/15 01:10:51;;;;;;;0.25;0.25;;;;;;;17.78;87.12;100142.50;5003806;28;20529;-73
2023/08/15 01:13:26;;;;;;;0.20;0.20;;;;;;;17.81;87.00;100138.28;4986328;28;20108;-75
2023/08/15 01:15:52;;;;;;;0.20;0.20;;;;;;;17.83;86.91;100142.38;4970603;28;20053;-75
2023/08/15 01:18:27;;;;;;;0.30;0.30;;;;;;;17.83;86.54;100133.25;4984031;28;20045;-73
2023/08/15 01:20:55;;;;;;;0.20;0.20;;;;;;;17.78;86.41;100147.19;4970616;28;20066;-75
2023/08/15 01:23:33;;;;;;;0.22;0.22;;;;;;;17.76;87.08;100143.94;5009089;28;20045;-73
2023/08/15 01:26:00;;;;;;;0.22;0.22;;;;;;;17.75;87.38;100143.13;4972697;28;20045;-73
2023/08/15 01:28:26;;;;;;;0.20;0.20;;;;;;;17.76;88.01;100141.16;5006476;28;20412;-73
2023/08/15 01:30:57;;;;;;;0.20;0.20;;;;;;;17.74;88.30;100144.28;4974565;28;20475;-73
2023/08/15 01:33:34;;;;;;;0.20;0.20;;;;;;;17.74;88.56;100143.44;5009039;28;20054;-73
2023/08/15 01:36:04;;;;;;;0.20;0.20;;;;;;;17.78;89.21;100141.66;4991913;28;20498;-73
2023/08/15 01:38:38;;;;;;;0.30;0.30;;;;;;;17.76;88.93;100149.47;4990811;28;20077;-74
2023/08/15 01:41:07;;;;;;;0.20;0.20;;;;;;;17.73;88.78;100150.94;4973448;28;20549;-71
2023/08/15 01:43:36;;;;;;;0.20;0.20;;;;;;;17.71;88.59;100144.88;4990153;28;20045;-69
2023/08/15 01:46:03;;;;;;;0.20;0.20;;;;;;;17.66;88.78;100145.84;4992095;28;20077;-70
2023/08/15 01:48:29;;;;;;;0.30;0.30;;;;;;;17.55;89.29;100134.19;5005252;28;20149;-71
2023/08/15 01:50:55;;;;;;;0.20;0.20;;;;;;;17.64;89.98;100141.75;4993257;28;20069;-71
2023/08/15 01:53:23;;;;;;;0.20;0.20;;;;;;;17.62;89.36;100141.25;4988850;28;20046;-71
2023/08/15 01:55:51;;;;;;;0.20;0.20;;;;;;;17.60;89.54;100129.69;4975591;28;20068;-71
2023/08/15 01:58:17;;;;;;;0.20;0.20;;;;;;;17.59;89.01;100145.44;4990730;28;20042;-71
2023/08/15 02:00:45;;;;;;;;;;;;;;;17.57;89.24;100145.78;4973120;28;20058;-71
2023/08/15 02:03:11;;;;;;;0.20;0.20;;;;;;;17.49;89.44;100129.13;4988365;28;19948;-71
2023/08/15 02:05:37;;;;;;;0.20;0.20;;;;;;;17.57;90.14;100139.41;4989476;28;20481;-70
2023/08/15 02:08:04;;;;;;;0.20;0.20;;;;;;;17.58;90.53;100152.13;4988624;28;20045;-72
2023/08/15 02:10:31;;;;;;;0.20;0.20;;;;;;;17.58;90.83;100144.66;4988152;28;20073;-71
2023/08/15 02:12:58;;;;;;;0.20;0.20;;;;;;;17.62;90.80;100139.28;4986344;28;20141;-71
2023/08/15 02:15:25;;;;;;;0.20;0.20;;;;;;;17.64;90.40;100145.34;4991013;28;20064;-73
2023/08/15 02:17:51;;;;;;;0.20;0.20;;;;;;;17.69;90.43;100147.16;4979890;28;20644;-72
2023/08/15 02:20:19;;;;;;;0.20;0.20;;;;;;;17.69;90.19;100136.91;5005487;28;20058;-73
2023/08/15 02:22:45;;;;;;;0.22;0.22;;;;;;;17.74;90.45;100148.97;4971636;28;20069;-73
2023/08/15 02:25:11;;;;;;;0.20;0.20;;;;;;;17.74;90.42;100141.50;4989485;28;20057;-72
2023/08/15 02:27:38;;;;;;;0.20;0.20;;;;;;;17.76;90.91;100150.31;4991561;28;20037;-73
2023/08/15 02:30:08;;;;;;;0.20;0.20;;;;;;;17.78;91.20;100144.44;4999783;28;20275;-71
2023/08/15 02:32:35;;;;;;;0.20;0.20;;;;;;;17.80;91.25;100150.50;4987329;28;20065;-74
2023/08/15 02:35:01;;;;;;;0.20;0.20;;;;;;;17.85;91.16;100156.69;4971145;28;20046;-73
2023/08/15 02:37:29;;;;;;;0.20;0.20;;;;;;;17.88;91.36;100146.94;4971596;28;20076;-70
2023/08/15 02:39:55;;;;;;;0.30;0.30;;;;;;;17.91;91.51;100157.38;5015681;28;20065;-69
2023/08/15 02:42:22;;;;;;;0.30;0.30;;;;;;;17.88;91.22;100155.25;4971859;28;20112;-71
2023/08/15 02:44:48;;;;;;;0.20;0.20;;;;;;;17.94;91.39;100162.28;4991641;28;20050;-70
2023/08/15 02:47:15;;;;;;;0.20;0.20;;;;;;;17.96;91.32;100161.97;4985460;28;20042;-71
2023/08/15 02:49:42;;;;;;;0.20;0.20;;;;;;;17.98;90.87;100160.53;4994244;28;20041;-72
2023/08/15 02:52:08;;;;;;;0.20;0.20;;;;;;;18.02;90.58;100160.72;4984914;28;20054;-71
2023/08/15 02:54:34;;;;;;;0.28;0.28;;;;;;;18.03;90.62;100159.63;4989340;28;20056;-72
2023/08/15 02:57:00;;;;;;;0.20;0.20;;;;;;;18.07;90.09;100157.84;5006680;28;20053;-70
2023/08/15 02:59:26;;;;;;;0.20;0.20;;;;;;;18.10;90.03;100156.38;4970818;28;20049;-71
2023/08/15 03:01:52;;;;;;;0.20;0.20;;;;;;;18.16;90.15;100157.06;4985547;28;20564;-71
2023/08/15 03:04:20;;;;;;;0.20;0.20;;;;;;;18.22;89.58;100161.34;4969342;28;20056;-71
2023/08/15 03:06:46;;;;;;;0.20;0.20;;;;;;;18.25;89.87;100160.69;4969852;28;20076;-72
2023/08/15 03:09:14;;;;;;;0.20;0.20;;;;;;;18.30;89.80;100156.97;4987888;28;20053;-72
2023/08/15 03:11:40;;;;;;;;;;;;;;;18.34;89.81;100161.56;4990175;28;20505;-71
2023/08/15 03:14:06;;;;;;;0.20;0.20;;;;;;;18.38;89.38;100167.25;4986411;28;19925;-71
2023/08/15 03:16:33;;;;;;;0.20;0.20;;;;;;;18.43;89.18;100173.47;4984319;28;20041;-69
2023/08/15 03:18:59;;;;;;;0.30;0.30;;;;;;;18.49;88.55;100174.16;4988810;28;20122;-76
2023/08/15 03:21:27;;;;;;;0.30;0.30;;;;;;;18.52;87.72;100176.28;4980888;28;20061;-74
2023/08/15 03:23:54;;;;;;;0.20;0.20;;;;;;;18.55;87.64;100172.06;4983521;28;20049;-73
2023/08/15 03:26:20;;;;;;;0.30;0.30;;;;;;;18.56;88.01;100171.72;4971254;28;20591;-72
2023/08/15 03:28:46;;;;;;;0.30;0.30;;;;;;;18.62;87.43;100175.19;4970160;28;20096;-74
2023/08/15 03:31:13;;;;;;;0.28;0.28;;;;;;;18.67;87.45;100177.81;4987221;28;20108;-74
2023/08/15 03:33:44;;;;;;;0.30;0.30;;;;;;;18.75;87.34;100167.06;4990748;28;20517;-73
2023/08/15 03:36:11;;;;;;;0.28;0.28;;;;;;;18.79;87.55;100163.34;4988307;28;20053;-74
2023/08/15 03:38:41;;;;;;;0.20;0.20;;;;;;;18.89;87.08;100172.47;4970426;28;20145;-73
2023/08/15 03:41:07;;;;;;;0.22;0.22;;;;;;;18.92;86.66;100174.63;5006459;28;20054;-74
2023/08/15 03:43:34;;;;;;;0.30;0.30;;;;;;;18.99;86.35;100172.22;4988203;28;20572;-73
2023/08/15 03:46:03;;;;;;;0.30;0.30;;;;;;;19.07;85.99;100171.44;4992785;28;20052;-71
2023/08/15 03:48:32;;;;;;;0.30;0.30;;;;;;;19.13;85.71;100161.00;4989231;28;20072;-72
2023/08/15 03:51:00;;;;;;;0.20;0.20;;;;;;;19.17;85.13;100159.22;4987847;28;20050;-72
2023/08/15 03:53:26;;;;;;;0.30;0.30;;;;;;;19.22;84.60;100161.03;4970956;28;20041;-72
2023/08/15 03:55:55;;;;;;;0.30;0.30;;;;;;;19.26;84.29;100164.75;5000934;28;20045;-72
2023/08/15 03:58:23;;;;;;;0.30;0.30;;;;;;;19.35;84.22;100164.78;4988674;28;20104;-71
2023/08/15 04:00:50;;;;;;;0.30;0.30;;;;;;;19.44;84.59;100165.59;4968340;28;20060;-74
2023/08/15 04:03:16;;;;;;;0.20;0.20;;;;;;;19.49;83.91;100159.88;4983887;28;20402;-72
2023/08/15 04:05:44;;;;;;;0.30;0.30;;;;;;;19.59;83.46;100172.59;4995060;28;20050;-71
2023/08/15 04:08:10;;;;;;;0.30;0.30;;;;;;;19.68;82.77;100167.03;5003023;28;20046;-71
2023/08/15 04:10:41;;;;;;;0.30;0.30;;;;;;;19.76;81.82;100169.00;5008972;28;20042;-73
2023/08/15 04:13:09;;;;;;;0.30;0.30;;;;;;;19.83;80.83;100174.06;5009790;28;20096;-73
2023/08/15 04:15:37;;;;;;;0.30;0.30;;;;;;;19.89;80.91;100177.44;4976944;28;20516;-73
2023/08/15 04:18:06;;;;;;;0.30;0.30;;;;;;;19.97;80.90;100169.13;5005475;28;20042;-74
2023/08/15 04:20:36;;;;;;;0.30;0.30;;;;;;;20.04;81.13;100176.97;5005553;28;20050;-73
2023/08/15 04:23:03;;;;;;;0.30;0.30;;;;;;;20.10;80.08;100174.81;4984836;28;20512;-74
2023/08/15 04:25:29;;;;;;;0.20;0.20;;;;;;;20.16;79.85;100170.75;4990498;28;20140;-72
2023/08/15 04:27:55;;;;;;;0.30;0.30;;;;;;;20.22;79.85;100176.94;4963545;28;20050;-74
2023/08/15 04:30:23;;;;;;;0.23;0.23;;;;;;;20.26;79.63;100178.69;4986419;28;20193;-73
2023/08/15 04:32:49;;;;;;;0.40;0.40;;;;;;;20.33;78.13;100180.16;4989323;28;20148;-74
2023/08/15 04:35:16;;;;;;;0.30;0.30;;;;;;;20.36;77.47;100176.72;4969778;28;20046;-74
2023/08/15 04:37:43;;;;;;;0.30;0.30;;;;;;;20.40;77.21;100180.47;4990792;28;20056;-74
2023/08/15 04:40:12;;;;;;;0.20;0.20;;;;;;;20.50;76.63;100176.50;4972153;28;20038;-75
2023/08/15 04:42:39;;;;;;;0.30;0.30;;;;;;;20.60;76.43;100178.91;4986757;28;20050;-74
2023/08/15 04:45:08;;;;;;;0.30;0.30;;;;;;;20.68;75.22;100185.56;4988745;28;20061;-74
2023/08/15 04:47:36;;;;;;;0.30;0.30;;;;;;;20.69;74.80;100178.88;4978080;28;20125;-73
2023/08/15 04:50:03;;;;;;;0.30;0.30;;;;;;;20.74;75.34;100184.22;4973357;28;20057;-75
2023/08/15 04:52:31;;;;;;;0.30;0.30;;;;;;;20.87;74.77;100184.34;4985942;28;20485;-74
2023/08/15 04:55:00;;;;;;;0.30;0.30;;;;;;;20.93;73.97;100183.03;4985703;28;20137;-73
2023/08/15 04:57:26;;;;;;;0.30;0.30;;;;;;;20.95;73.52;100181.53;4991314;28;20049;-73
2023/08/15 04:59:53;;;;;;;0.30;0.30;;;;;;;20.96;73.70;100182.34;4982328;28;20540;-73
2023/08/15 05:02:20;;;;;;;0.30;0.30;;;;;;;21.05;73.04;100187.84;4990829;28;20050;-73
2023/08/15 05:04:47;;;;;;;0.30;0.30;;;;;;;21.10;72.80;100182.91;4991516;28;20603;-73
2023/08/15 05:07:14;;;;;;;0.30;0.30;;;;;;;21.13;72.35;100177.84;4989596;28;20139;-74
2023/08/15 05:09:40;;;;;;;0.30;0.30;;;;;;;21.12;72.32;100190.91;4993107;28;20052;-74
2023/08/15 05:12:07;;;;;;;0.30;0.30;;;;;;;21.13;72.66;100188.94;4988175;28;20048;-73
2023/08/15 05:14:34;;;;;;;0.30;0.30;;;;;;;21.23;73.22;100191.34;5009842;28;20532;-73
2023/08/15 05:17:00;;;;;;;0.30;0.30;;;;;;;21.36;72.02;100195.81;4989243;28;20050;-74
2023/08/15 05:19:27;;;;;;;0.30;0.30;;;;;;;21.39;71.35;100194.31;4975375;28;20069;-74
2023/08/15 05:21:56;;;;;;;0.30;0.30;;;;;;;21.44;70.67;100198.88;4973771;28;20773;-73
2023/08/15 05:24:25;;;;;;;0.30;0.30;;;;;;;21.46;70.25;100194.59;4973744;28;20272;-74
2023/08/15 05:26:52;;;;;;;0.30;0.30;;;;;;;21.54;69.45;100187.31;4988332;28;20053;-74
2023/08/15 05:29:20;;;;;;;0.30;0.30;;;;;;;21.60;69.12;100196.28;4986626;28;20046;-74
2023/08/15 05:31:47;;;;;;;0.30;0.30;;;;;;;21.60;68.47;100183.19;5011226;28;20050;-72
2023/08/15 05:34:13;;;;;;;0.30;0.30;;;;;;;21.57;68.05;100192.22;4991674;28;20073;-72
2023/08/15 05:36:39;;;;;;;0.30;0.30;;;;;;;21.59;68.23;100191.88;4992224;28;20109;-74
2023/08/15 05:39:07;;;;;;;0.30;0.30;;;;;;;21.67;67.98;100202.16;4991878;28;20408;-74
2023/08/15 05:41:34;;;;;;;0.30;0.30;;;;;;;21.77;67.86;100190.59;4992218;28;20049;-73
2023/08/15 05:44:00;;;;;;;0.30;0.30;;;;;;;21.85;67.28;100199.22;5010737;28;20052;-71
2023/08/15 05:46:26;;;;;;;0.30;0.30;;;;;;;21.91;66.99;100192.25;5008096;28;20491;-71
2023/08/15 05:48:52;;;;;;;0.30;0.30;;;;;;;22.08;66.91;100205.22;4988866;28;20056;-71
2023/08/15 05:51:18;;;;;;;0.30;0.30;;;;;;;22.28;66.07;100203.53;4974286;28;20505;-71
2023/08/15 05:53:45;;;;;;;0.30;0.30;;;;;;;22.49;64.68;100197.91;5007074;28;20235;-71
2023/08/15 05:56:12;;;;;;;0.32;0.32;;;;;;;22.59;64.16;100201.38;5005017;28;20140;-71
2023/08/15 05:58:38;;;;;;;0.30;0.30;;;;;;;22.64;63.64;100201.16;4987214;28;20650;-71
2023/08/15 06:01:04;;;;;;;0.30;0.30;;;;;;;22.66;62.92;100193.28;4994143;28;20058;-75
2023/08/15 06:03:32;;;;;;;0.30;0.30;;;;;;;22.66;62.16;100196.06;4992528;28;20425;-74
2023/08/15 06:05:59;;;;;;;0.40;0.40;;;;;;;22.70;61.87;100190.59;4991831;28;20148;-74
2023/08/15 06:08:25;;;;;;;0.30;0.30;;;;;;;22.85;61.40;100197.44;5009079;28;20606;-74
2023/08/15 06:10:51;;;;;;;0.30;0.30;;;;;;;23.09;60.57;100202.19;4970178;28;20096;-74
2023/08/15 06:13:19;;;;;;;0.30;0.30;;;;;;;23.34;59.63;100197.41;5004408;28;20046;-74
2023/08/15 06:15:45;;;;;;;0.30;0.30;;;;;;;23.48;58.93;100197.00;4987383;28;20469;-74
2023/08/15 06:18:11;;;;;;;0.40;0.40;;;;;;;23.60;59.21;100203.72;5005775;28;20140;-72
2023/08/15 06:20:38;;;;;;;0.40;0.40;;;;;;;23.73;58.57;100196.13;5005142;28;20058;-72
2023/08/15 06:23:05;;;;;;;0.40;0.40;;;;;;;23.80;58.30;100207.50;5002530;28;20543;-72
2023/08/15 06:25:31;;;;;;;0.30;0.30;;;;;;;23.83;58.44;100208.78;5007187;28;20049;-71
2023/08/15 06:27:58;;;;;;;0.30;0.30;;;;;;;23.88;58.52;100205.72;5011111;28;20045;-72
2023/08/15 06:30:25;;;;;;;0.30;0.30;;;;;;;23.88;57.91;100191.75;4994991;28;20532;-71
2023/08/15 06:32:51;;;;;;;0.30;0.30;;;;;;;24.06;57.52;100203.47;4992661;28;20056;-71
2023/08/15 06:35:18;;;;;;;0.40;0.40;;;;;;;24.11;57.11;100203.19;5002310;28;20045;-71
2023/08/15 06:37:45;;;;;;;0.40;0.40;;;;;;;24.02;57.00;100202.50;5006424;28;20038;-70
2023/08/15 06:40:12;;;;;;;0.30;0.30;;;;;;;23.96;57.15;100203.94;4969952;28;20068;-74
2023/08/15 06:42:39;;;;;;;0.30;0.30;;;;;;;23.90;56.92;100209.78;4987630;28;20081;-73
2023/08/15 06:45:08;;;;;;;;;;;;;;;24.00;56.29;100204.84;5003782;28;20525;-74
2023/08/15 06:47:36;;;;;;;0.40;0.40;;;;;;;23.99;56.30;100195.66;4951815;28;19925;-74
2023/08/15 06:50:03;;;;;;;0.65;0.40;;;;;;;24.08;56.92;100189.94;4991042;28;20050;-76
2023/08/15 06:52:29;;;;;;;0.40;0.40;;;;;;;23.99;56.35;100200.44;4968269;28;20425;-75
2023/08/15 06:54:55;;;;;;;0.40;0.40;;;;;;;23.92;56.53;100204.66;4985202;28;20058;-75
2023/08/15 06:57:21;;;;;;;0.40;0.40;;;;;;;24.12;56.00;100204.81;5004245;28;20517;-74
2023/08/15 06:59:48;;;;;;;0.40;0.40;;;;;;;24.29;55.32;100198.09;4974238;28;20080;-74
2023/08/15 07:02:14;;;;;;;0.40;0.40;;;;;;;24.41;55.21;100199.97;5000744;28;20332;-74
2023/08/15 07:04:43;;;;;;;0.40;0.40;;;;;;;24.71;54.15;100199.53;5008995;28;20041;-75
2023/08/15 07:07:11;;;;;;;0.40;0.40;;;;;;;24.90;53.29;100203.59;4973445;28;20042;-75
2023/08/15 07:09:38;;;;;;;0.40;0.40;;;;;;;25.05;52.44;100207.53;4966141;28;20046;-75
2023/08/15 07:12:07;;;;;;;0.40;0.40;;;;;;;25.20;51.96;100211.47;4973845;28;20045;-74
2023/08/15 07:14:34;;;;;;;0.50;0.50;;;;;;;25.16;51.70;100216.97;4992178;28;20311;-75
2023/08/15 07:17:00;;;;;;;0.40;0.40;;;;;;;25.09;51.93;100213.22;4977769;28;20046;-75
2023/08/15 07:19:27;;;;;;;0.40;0.40;;;;;;;25.16;51.29;100210.59;4992279;28;20749;-75
2023/08/15 07:21:55;;;;;;;0.40;0.40;;;;;;;25.37;51.42;100217.84;4990941;28;20037;-75
2023/08/15 07:24:21;;;;;;;0.40;0.40;;;;;;;25.68;50.26;100219.75;5014048;28;20056;-75
2023/08/15 07:26:47;;;;;;;0.40;0.40;;;;;;;25.87;49.36;100207.72;5008509;28;20050;-75
2023/08/15 07:29:13;;;;;;;0.40;0.40;;;;;;;26.01;49.00;100215.59;4980323;28;20199;-75
2023/08/15 07:31:40;;;;;;;0.47;0.40;;;;;;;26.15;48.58;100214.25;4993040;28;20041;-75
2023/08/15 07:34:07;;;;;;;0.40;0.40;;;;;;;26.25;48.62;100212.84;4994020;28;20112;-75
2023/08/15 07:36:34;;;;;;;0.40;0.40;;;;;;;26.58;47.92;100205.81;4988118;28;20049;-75
2023/08/15 07:39:03;;;;;;;;;;;;;;;27.13;46.96;100213.91;4993661;28;20058;-74
2023/08/15 07:41:30;;;;;;;0.40;0.40;;;;;;;27.16;46.36;100217.94;4972111;28;19932;-75
2023/08/15 07:43:56;;;;;;;0.50;0.50;;;;;;;27.23;46.57;100208.81;5015447;28;20091;-73
2023/08/15 07:46:22;;;;;;;0.50;0.50;;;;;;;27.38;46.14;100212.66;5010930;28;20038;-74
2023/08/15 07:48:50;;;;;;;0.50;0.50;;;;;;;27.56;45.65;100212.94;4970478;28;20300;-75
2023/08/15 07:51:16;;;;;;;0.50;0.50;;;;;;;27.89;44.77;100216.94;4991521;28;20141;-74
2023/08/15 07:53:43;;;;;;;0.50;0.50;;;;;;;28.19;44.78;100215.25;4994998;28;20118;-74
2023/08/15 07:56:10;;;;;;;0.40;0.40;;;;;;;27.95;44.01;100215.38;5013589;28;20748;-74
2023/08/15 07:58:37;;;;;;;0.50;0.50;;;;;;;27.57;45.35;100212.53;5013873;28;20051;-73
2023/08/15 08:01:03;;;;;;;0.50;0.50;;;;;;;27.68;45.75;100201.44;4979295;28;20045;-74
2023/08/15 08:03:30;;;;;;;0.50;0.50;;;;;;;28.09;44.23;100209.09;4993325;28;20046;-74
2023/08/15 08:05:56;;;;;;;;;;;;;;;27.96;44.37;100207.78;5015320;28;20054;-74
2023/08/15 08:08:22;;;;;;;0.30;0.30;;;;;;;27.24;45.88;100208.47;5016374;28;19931;-75
2023/08/15 08:10:48;;;;;;;0.40;0.40;;;;;;;26.80;47.08;100214.56;4994711;28;20428;-73
2023/08/15 08:13:17;;;;;;;0.40;0.40;;;;;;;26.28;48.20;100201.69;5008724;28;20153;-76
2023/08/15 08:15:43;;;;;;;0.40;0.40;;;;;;;26.02;48.83;100208.81;4993823;28;20417;-76
2023/08/15 08:18:09;;;;;;;0.40;0.40;;;;;;;26.00;48.79;100213.16;4993658;28;20058;-75
2023/08/15 08:20:37;;;;;;;0.40;0.40;;;;;;;26.18;50.37;100208.72;5007383;28;20163;-74
2023/08/15 08:23:04;;;;;;;0.40;0.40;;;;;;;26.17;49.89;100214.69;4982318;28;20061;-75
2023/08/15 08:25:34;;;;;;;0.45;0.40;;;;;;;25.79;50.79;100205.97;4994296;28;20042;-75
2023/08/15 08:28:00;;;;;;;0.45;0.45;;;;;;;25.74;51.12;100211.84;5015984;28;20410;-75
2023/08/15 08:30:29;;;;;;;0.40;0.40;;;;;;;26.07;50.53;100199.31;5001146;28;20100;-75
2023/08/15 08:32:55;;;;;;;0.50;0.50;;;;;;;26.54;49.19;100199.34;5000850;28;20065;-74
2023/08/15 08:35:22;;;;;;;0.60;0.60;;;;;;;27.42;46.82;100207.88;5023434;28;20069;-74
2023/08/15 08:37:48;;;;;;;0.40;0.40;;;;;;;28.17;45.31;100210.00;4634796;28;10000557;-75
2023/08/15 08:40:15;;;;;;;0.40;0.40;;;;;;;27.84;45.79;100206.84;4994271;28;20049;-76
2023/08/15 08:42:41;;;;;;;;;;;;;;;27.72;46.71;100207.09;4977994;28;20050;-75
2023/08/15 08:45:10;;;;;;;0.40;0.40;;;;;;;27.55;46.79;100212.09;5014510;28;20295;-74
2023/08/15 08:47:41;;;;;;;0.40;0.40;;;;;;;27.39;47.13;100215.06;4979447;28;20056;-74
2023/08/15 08:50:09;;;;;;;0.40;0.40;;;;;;;27.17;47.03;100199.94;4994895;28;20054;-73
2023/08/15 08:52:41;;;;;;;0.40;0.40;;;;;;;26.95;47.72;100205.22;5014178;28;20131;-73
2023/08/15 08:55:08;;;;;;;0.40;0.40;;;;;;;27.08;48.26;100205.81;5011310;28;20099;-73
2023/08/15 08:57:35;;;;;;;;;;;;;;;26.86;48.32;100202.69;4998418;28;20137;-73
2023/08/15 09:00:07;;;;;;;0.40;0.40;;;;;;;26.25;48.47;100202.44;4997646;28;19924;-74
2023/08/15 09:02:34;;;;;;;0.40;0.40;;;;;;;26.12;49.59;100206.56;4996847;28;20100;-74
2023/08/15 09:05:03;;;;;;;0.40;0.40;;;;;;;26.28;48.95;100195.28;5010005;28;20529;-73
2023/08/15 09:07:32;;;;;;;0.40;0.40;;;;;;;26.60;48.80;100197.84;4999364;28;20095;-73
2023/08/15 09:09:59;;;;;;;0.60;0.60;;;;;;;26.99;48.25;100208.09;4999975;28;20056;-75
2023/08/15 09:12:34;;;;;;;0.60;0.60;;;;;;;27.72;46.77;100204.28;4998634;28;20060;-73
2023/08/15 09:15:00;;;;;;;0.63;0.63;;;;;;;28.40;44.43;100206.22;5014266;28;20049;-73
2023/08/15 09:17:27;;;;;;;0.45;0.45;;;;;;;28.97;43.09;100194.66;5013155;28;20049;-73
2023/08/15 09:19:53;;;;;;;0.40;0.40;;;;;;;28.36;43.80;100206.19;4992503;28;20046;-73
2023/08/15 09:22:24;;;;;;;0.30;0.30;;;;;;;27.50;46.07;100198.38;4982584;28;20054;-73
2023/08/15 09:24:51;;;;;;;0.60;0.60;;;;;;;27.52;46.90;100198.84;4991559;28;20075;-74
2023/08/15 09:27:18;;;;;;;0.60;0.60;;;;;;;28.48;44.98;100207.09;4971768;28;20576;-74
2023/08/15 09:29:44;;;;;;;0.40;0.40;;;;;;;28.87;43.89;100192.56;4996216;28;20045;-75
2023/08/15 09:32:12;;;;;;;0.40;0.40;;;;;;;28.73;44.35;100198.88;4975250;28;20152;-73
2023/08/15 09:34:38;;;;;;;0.40;0.40;;;;;;;28.52;44.55;100197.50;4966611;28;20144;-74
2023/08/15 09:37:05;;;;;;;0.40;0.40;;;;;;;28.49;44.00;100198.28;4993778;28;20049;-75
2023/08/15 09:39:33;;;;;;;0.50;0.50;;;;;;;28.80;43.90;100189.69;4964312;28;20119;-74
2023/08/15 09:41:59;;;;;;;0.40;0.40;;;;;;;28.74;43.60;100186.41;4971168;28;20045;-73
2023/08/15 09:44:30;;;;;;;0.40;0.40;;;;;;;28.51;43.50;100189.44;5003142;28;20517;-73
2023/08/15 09:46:57;;;;;;;0.40;0.40;;;;;;;28.34;43.99;100200.16;5009696;28;20485;-73
2023/08/15 09:49:25;;;;;;;0.50;0.50;;;;;;;28.06;44.60;100186.59;5006485;28;20406;-74
2023/08/15 09:51:52;;;;;;;0.47;0.47;;;;;;;27.92;44.58;100193.69;4990673;28;20095;-72
2023/08/15 09:54:20;;;;;;;0.65;0.65;;;;;;;27.76;44.87;100205.13;4982015;28;20056;-73
2023/08/15 09:56:48;;;;;;;0.70;0.70;;;;;;;28.84;43.59;100193.34;4987622;28;20149;-74
2023/08/15 09:59:14;;;;;;;0.70;0.70;;;;;;;30.56;39.43;100193.59;5002894;28;20072;-74
2023/08/15 10:01:44;;;;;;;0.70;0.70;;;;;;;31.34;37.85;100179.00;5004311;28;20050;-74
2023/08/15 10:04:12;;;;;;;0.40;0.40;;;;;;;31.33;37.90;100185.88;4968810;28;20623;-73
2023/08/15 10:06:42;;;;;;;0.70;0.70;;;;;;;30.34;39.49;100179.50;4999535;28;20494;-73
2023/08/15 10:09:12;;;;;;;0.40;0.40;;;;;;;29.87;40.26;100176.56;5022332;28;20041;-73
2023/08/15 10:11:44;;;;;;;0.60;0.60;;;;;;;28.87;42.13;100182.13;4982584;28;20044;-77
2023/08/15 10:14:16;;;;;;;0.55;0.55;;;;;;;29.65;40.74;100164.44;5011689;28;20509;-75
2023/08/15 10:16:43;;;;;;;0.70;0.70;;;;;;;30.76;39.26;100170.66;4987176;28;20050;-75
2023/08/15 10:19:15;;;;;;;0.70;0.70;;;;;;;32.24;36.48;100175.72;5006418;28;20065;-75
2023/08/15 10:21:49;;;;;;;0.60;0.60;;;;;;;32.88;34.57;100177.63;5004222;28;20158;-75
2023/08/15 10:24:16;;;;;;;0.38;0.38;;;;;;;32.47;35.15;100168.69;5005488;28;20053;-75
2023/08/15 10:26:43;;;;;;;0.40;0.40;;;;;;;31.20;37.40;100185.47;4978188;28;20072;-75
2023/08/15 10:29:09;;;;;;;0.60;0.60;;;;;;;30.73;38.55;100172.28;5005705;28;20050;-74
2023/08/15 10:31:39;;;;;;;0.60;0.60;;;;;;;31.35;37.56;100180.59;4998629;28;20500;-74
2023/08/15 10:34:08;;;;;;;0.70;0.70;;;;;;;32.10;36.55;100178.66;5000034;28;20567;-73
2023/08/15 10:36:40;;;;;;;0.68;0.68;;;;;;;32.66;35.87;100175.81;5024276;28;20057;-74
2023/08/15 10:39:08;;;;;;;0.70;0.70;;;;;;;33.05;34.50;100178.66;4982254;28;20041;-74
2023/08/15 10:41:38;;;;;;;0.70;0.70;;;;;;;33.57;33.99;100176.88;5003958;28;20045;-74
2023/08/15 10:44:06;;;;;;;0.82;0.82;;;;;;;34.57;32.59;100175.81;5016550;28;20534;-73
2023/08/15 10:46:34;;;;;;;0.90;0.90;;;;;;;35.17;31.25;100175.13;5006102;28;20045;-73
2023/08/15 10:49:06;;;;;;;0.90;0.90;;;;;;;35.18;31.60;100163.34;4994336;28;20470;-73
2023/08/15 10:51:36;;;;;;;0.60;0.60;;;;;;;35.75;31.11;100160.56;4984253;28;20049;-73
2023/08/15 10:54:06;;;;;;;0.40;0.40;;;;;;;34.11;32.54;100161.97;4979467;28;20052;-74
2023/08/15 10:56:34;;;;;;;0.40;0.40;;;;;;;31.93;36.27;100175.53;5007891;28;20070;-75
2023/08/15 10:59:05;;;;;;;0.70;0.70;;;;;;;30.63;38.70;100171.06;5006898;28;20049;-75
2023/08/15 11:01:31;;;;;;;0.50;0.50;;;;;;;30.29;39.27;100168.63;4989146;28;20112;-73
2023/08/15 11:03:58;;;;;;;1.00;1.00;;;;;;;31.24;37.00;100166.53;4983985;28;20608;-73
2023/08/15 11:06:26;;;;;;;0.50;0.50;;;;;;;32.47;34.50;100157.38;4995477;28;20143;-73
2023/08/15 11:08:55;;;;;;;0.40;0.40;;;;;;;31.57;35.39;100169.22;5026671;28;20046;-73
2023/08/15 11:11:22;;;;;;;1.20;1.20;;;;;;;30.72;37.94;100164.19;4987091;28;20067;-73
2023/08/15 11:13:50;;;;;;;1.10;1.10;;;;;;;32.33;34.01;100157.47;4967869;28;20100;-73
2023/08/15 11:16:17;;;;;;;1.20;1.20;;;;;;;33.40;31.74;100156.00;5016441;28;20045;-73
2023/08/15 11:18:45;;;;;;;1.20;1.10;;;;;;;34.25;30.90;100152.41;4998287;28;20556;-73
2023/08/15 11:21:12;;;;;;;1.10;1.10;;;;;;;35.00;29.31;100152.31;4983346;28;20050;-73
2023/08/15 11:23:41;;;;;;;1.25;1.20;;;;;;;35.53;28.54;100153.72;4984318;28;20053;-75
2023/08/15 11:26:08;;;;;;;1.25;1.20;;;;;;;35.63;29.02;100149.84;4989584;28;20054;-75
2023/08/15 11:28:35;;;;;;;1.33;1.23;;;;;;;36.08;28.68;100153.34;4993317;28;20045;-74